Time;durP1;ratioP1;P1;durP2;ratioP2;P2;SDS_P1;SDS_P2;PMS_P1;PMS_P2;Temp;Humidity;BMP_temperature;BMP_pressure;BME280_temperature;BME280_humidity;BME280_pressure;Samples;Min_cycle;Max_cycle;Signal;HPM_P1;HPM_P2
2022/08/16 00:00:49;;;;;;;;;;;19.80;99.90;;;;;;5073308;28;19915;-79
2022/08/16 00:03:15;;;;;;;;;;;19.70;99.90;;;;;;5073404;28;19919;-80
2022/08/16 00:05:41;;;;;;;;;;;19.70;99.90;;;;;;5073335;28;19916;-79
2022/08/16 00:08:06;;;;;;;;;;;19.70;99.90;;;;;;5073163;28;19909;-80
2022/08/16 00:10:33;;;;;;;;;;;19.60;99.90;;;;;;5073680;28;19908;-79
2022/08/16 00:12:59;;;;;;;;;;;19.70;99.90;;;;;;5073113;28;19917;-79
2022/08/16 00:15:27;;;;;;;;;;;19.70;99.90;;;;;;5073349;28;19909;-79
2022/08/16 00:17:53;;;;;;;;;;;19.60;99.90;;;;;;5073305;28;19908;-79
2022/08/16 00:20:20;;;;;;;;;;;19.60;99.90;;;;;;5073117;28;19909;-80
2022/08/16 00:22:46;;;;;;;;;;;19.60;99.90;;;;;;5072995;28;19931;-80
2022/08/16 00:25:13;;;;;;;;;;;19.60;99.90;;;;;;5073184;28;20365;-79
2022/08/16 00:27:39;;;;;;;;;;;19.60;99.90;;;;;;5072997;28;19909;-79
2022/08/16 00:30:06;;;;;;;;;;;19.60;99.90;;;;;;5073066;28;20426;-79
2022/08/16 00:32:32;;;;;;;;;;;19.60;99.90;;;;;;5076044;28;19912;-79
2022/08/16 00:34:57;;;;;;;;;;;19.50;99.90;;;;;;5076836;28;19913;-79
2022/08/16 00:37:24;;;;;;;;;;;19.50;99.90;;;;;;5076933;28;19912;-79
2022/08/16 00:39:51;;;;;;;;;;;19.50;99.90;;;;;;5076681;28;19958;-79
2022/08/16 00:42:17;;;;;;;;;;;19.60;99.90;;;;;;5076581;28;19961;-79
2022/08/16 00:44:45;;;;;;;;;;;19.50;99.90;;;;;;5076562;28;20257;-78
2022/08/16 00:47:15;;;;;;;;;;;19.50;99.90;;;;;;5076458;28;20392;-79
2022/08/16 00:49:40;;;;;;;;;;;19.40;99.90;;;;;;5076468;28;19909;-79
2022/08/16 00:52:06;;;;;;;;;;;19.50;99.90;;;;;;5076368;28;19939;-80
2022/08/16 00:54:31;;;;;;;;;;;19.60;99.90;;;;;;5058920;28;20052;-78
2022/08/16 00:56:58;;;;;;;;;;;19.50;99.90;;;;;;5058351;28;19958;-79
2022/08/16 00:59:25;;;;;;;;;;;19.60;99.90;;;;;;5076306;28;19908;-79
2022/08/16 01:01:50;;;;;;;;;;;19.60;99.90;;;;;;5075483;28;20003;-80
2022/08/16 01:04:19;;;;;;;;;;;19.50;99.90;;;;;;5058163;28;19944;-79
2022/08/16 01:06:44;;;;;;;;;;;19.60;99.90;;;;;;5076192;28;20423;-80
2022/08/16 01:09:10;;;;;;;;;;;19.60;99.90;;;;;;5076169;28;19909;-79
2022/08/16 01:11:37;;;;;;;;;;;19.60;99.90;;;;;;5076199;28;19960;-80
2022/08/16 01:14:14;;;;;;;;;;;19.50;99.90;;;;;;5076065;28;19912;-79
2022/08/16 01:16:40;;;;;;;;;;;19.60;99.90;;;;;;5076158;28;19916;-79
2022/08/16 01:19:25;;;;;;;;;;;19.60;99.90;;;;;;5076088;28;19909;-79
2022/08/16 01:21:52;;;;;;;;;;;19.80;99.90;;;;;;5076360;28;20310;-79
2022/08/16 01:24:26;;;;;;;;;;;19.90;99.90;;;;;;5075852;28;19944;-79
2022/08/16 01:26:55;;;;;;;;;;;19.90;99.90;;;;;;5075813;28;19983;-79
2022/08/16 01:29:24;;;;;;;;;;;20.00;99.90;;;;;;5057722;28;20295;-79
2022/08/16 01:31:50;;;;;;;;;;;19.90;99.90;;;;;;5075831;28;19963;-79
2022/08/16 01:34:16;;;;;;;;;;;19.70;99.90;;;;;;5057639;28;19944;-79
2022/08/16 01:36:42;;;;;;;;;;;19.80;99.90;;;;;;5075643;28;19908;-79
2022/08/16 01:39:10;;;;;;;;;;;19.70;99.90;;;;;;5075679;28;19915;-80
2022/08/16 01:41:35;;;;;;;;;;;19.80;99.90;;;;;;5075494;28;20102;-79
2022/08/16 01:44:01;;;;;;;;;;;19.70;99.90;;;;;;5075349;28;20387;-80
2022/08/16 01:46:34;;;;;;;;;;;19.80;99.90;;;;;;5075402;28;19965;-79
2022/08/16 01:49:04;;;;;;;;;;;19.90;99.90;;;;;;5075391;28;19909;-78
2022/08/16 01:51:30;;;;;;;;;;;20.00;99.90;;;;;;5075287;28;19908;-80
2022/08/16 01:53:56;;;;;;;;;;;20.10;99.90;;;;;;5075239;28;19930;-79
2022/08/16 01:56:22;;;;;;;;;;;20.10;99.90;;;;;;5057878;28;19909;-79
2022/08/16 01:58:47;;;;;;;;;;;20.10;99.90;;;;;;5075179;28;19909;-79
2022/08/16 02:01:13;;;;;;;;;;;19.80;99.90;;;;;;5075170;28;19996;-79
2022/08/16 02:03:39;;;;;;;;;;;19.80;99.90;;;;;;5075083;28;20261;-79
2022/08/16 02:06:05;;;;;;;;;;;19.60;99.90;;;;;;5075062;28;20003;-79
2022/08/16 02:08:30;;;;;;;;;;;19.50;99.90;;;;;;5057090;28;19908;-79
2022/08/16 02:10:56;;;;;;;;;;;19.70;99.90;;;;;;5075045;28;19962;-79
2022/08/16 02:13:22;;;;;;;;;;;19.80;99.90;;;;;;5074872;28;19959;-79
2022/08/16 02:15:47;;;;;;;;;;;19.60;99.90;;;;;;5075236;28;20081;-80
2022/08/16 02:18:13;;;;;;;;;;;19.70;99.90;;;;;;5074846;28;19908;-78
2022/08/16 02:20:40;;;;;;;;;;;19.90;99.90;;;;;;5074766;28;20425;-80
2022/08/16 02:23:06;;;;;;;;;;;20.00;99.90;;;;;;5074684;28;19908;-79
2022/08/16 02:25:32;;;;;;;;;;;20.00;99.90;;;;;;5074842;28;19916;-80
2022/08/16 02:27:58;;;;;;;;;;;19.90;99.90;;;;;;5074571;28;19912;-80
2022/08/16 02:30:25;;;;;;;;;;;19.90;99.90;;;;;;5074660;28;19915;-78
2022/08/16 02:32:51;;;;;;;;;;;20.00;99.90;;;;;;5074438;28;20333;-79
2022/08/16 02:35:18;;;;;;;;;;;19.90;99.90;;;;;;5074394;28;19909;-79
2022/08/16 02:37:43;;;;;;;;;;;19.70;99.90;;;;;;5074393;28;19947;-79
2022/08/16 02:40:10;;;;;;;;;;;19.70;99.90;;;;;;5074320;28;19963;-79
2022/08/16 02:42:35;;;;;;;;;;;19.80;99.90;;;;;;5074580;28;20288;-79
2022/08/16 02:45:01;;;;;;;;;;;19.70;99.90;;;;;;5074207;28;19954;-80
2022/08/16 02:47:27;;;;;;;;;;;19.70;99.90;;;;;;5074041;28;20439;-79
2022/08/16 02:49:53;;;;;;;;;;;19.70;99.90;;;;;;5074072;28;19912;-78
2022/08/16 02:52:18;;;;;;;;;;;19.70;99.90;;;;;;5074062;28;19965;-78
2022/08/16 02:54:44;;;;;;;;;;;19.60;99.90;;;;;;5074070;28;20379;-79
2022/08/16 02:57:10;;;;;;;;;;;19.40;99.90;;;;;;5074065;28;20383;-79
2022/08/16 02:59:35;;;;;;;;;;;19.60;99.90;;;;;;5074104;28;19915;-78
2022/08/16 03:02:01;;;;;;;;;;;19.40;99.90;;;;;;5055877;28;20457;-79
2022/08/16 03:04:27;;;;;;;;;;;19.50;99.90;;;;;;5073956;28;19909;-79
2022/08/16 03:06:53;;;;;;;;;;;19.60;99.90;;;;;;5074548;28;20356;-79
2022/08/16 03:09:18;;;;;;;;;;;19.80;99.90;;;;;;5073888;28;19908;-79
2022/08/16 03:11:44;;;;;;;;;;;19.70;99.90;;;;;;5073828;28;19913;-79
2022/08/16 03:14:11;;;;;;;;;;;19.60;99.90;;;;;;5073817;28;19978;-78
2022/08/16 03:16:37;;;;;;;;;;;19.60;99.90;;;;;;5074196;28;20304;-79
2022/08/16 03:19:03;;;;;;;;;;;19.50;99.90;;;;;;5073815;28;19916;-79
2022/08/16 03:21:28;;;;;;;;;;;19.40;99.90;;;;;;5073838;28;19913;-79
2022/08/16 03:23:54;;;;;;;;;;;19.30;99.90;;;;;;5073742;28;19913;-79
2022/08/16 03:26:20;;;;;;;;;;;19.30;99.90;;;;;;5073710;28;19909;-80
2022/08/16 03:28:45;;;;;;;;;;;19.20;99.90;;;;;;5073648;28;20423;-79
2022/08/16 03:31:11;;;;;;;;;;;19.20;99.90;;;;;;5073712;28;19908;-79
2022/08/16 03:33:37;;;;;;;;;;;19.30;99.90;;;;;;5073505;28;19913;-80
2022/08/16 03:36:03;;;;;;;;;;;19.40;99.90;;;;;;5073567;28;19995;-79
2022/08/16 03:38:29;;;;;;;;;;;19.40;99.90;;;;;;5073730;28;19913;-79
2022/08/16 03:40:56;;;;;;;;;;;19.40;99.90;;;;;;5073567;28;19909;-79
2022/08/16 03:43:22;;;;;;;;;;;19.30;99.90;;;;;;5073421;28;19908;-79
2022/08/16 03:45:49;;;;;;;;;;;19.40;99.90;;;;;;5073266;28;19913;-79
2022/08/16 03:48:15;;;;;;;;;;;19.20;99.90;;;;;;5073693;28;19962;-80
2022/08/16 03:50:40;;;;;;;;;;;19.30;99.90;;;;;;5073596;28;19908;-80
2022/08/16 03:53:06;;;;;;;;;;;19.30;99.90;;;;;;5073604;28;20451;-80
2022/08/16 03:55:31;;;;;;;;;;;19.20;99.90;;;;;;5073898;28;19908;-79
2022/08/16 03:57:57;;;;;;;;;;;19.10;99.90;;;;;;5073322;28;19909;-79
2022/08/16 04:00:25;;;;;;;;;;;19.00;99.90;;;;;;5055275;28;19915;-79
2022/08/16 04:02:51;;;;;;;;;;;19.00;99.90;;;;;;5073276;28;19957;-80
2022/08/16 04:05:17;;;;;;;;;;;19.00;99.90;;;;;;5073376;28;20395;-80
2022/08/16 04:07:43;;;;;;;;;;;19.00;99.90;;;;;;5076662;28;19909;-79
2022/08/16 04:10:09;;;;;;;;;;;19.10;99.90;;;;;;5077454;28;19912;-79
2022/08/16 04:12:35;;;;;;;;;;;19.10;99.90;;;;;;5077203;28;20387;-79
2022/08/16 04:15:01;;;;;;;;;;;19.10;99.90;;;;;;5077148;28;19916;-79
2022/08/16 04:17:28;;;;;;;;;;;19.00;99.90;;;;;;5077112;28;19908;-80
2022/08/16 04:19:54;;;;;;;;;;;18.90;99.90;;;;;;5077076;28;19966;-78
2022/08/16 04:22:20;;;;;;;;;;;18.90;99.90;;;;;;5077393;28;19909;-79
2022/08/16 04:24:45;;;;;;;;;;;18.90;99.90;;;;;;5076988;28;19909;-80
2022/08/16 04:27:11;;;;;;;;;;;18.80;99.90;;;;;;5077073;28;19913;-79
2022/08/16 04:29:37;;;;;;;;;;;18.90;99.90;;;;;;5076875;28;19916;-79
2022/08/16 04:32:03;;;;;;;;;;;18.90;99.90;;;;;;5077236;28;19912;-79
2022/08/16 04:34:29;;;;;;;;;;;18.80;99.90;;;;;;5077142;28;20299;-79
2022/08/16 04:36:56;;;;;;;;;;;18.90;99.90;;;;;;5076773;28;19909;-79
2022/08/16 04:39:22;;;;;;;;;;;18.90;99.90;;;;;;5077042;28;20257;-80
2022/08/16 04:41:48;;;;;;;;;;;19.00;99.90;;;;;;5076611;28;19912;-79
2022/08/16 04:44:14;;;;;;;;;;;19.00;99.90;;;;;;5076572;28;20383;-79
2022/08/16 04:46:39;;;;;;;;;;;19.10;99.90;;;;;;5076484;28;19927;-80
2022/08/16 04:49:06;;;;;;;;;;;19.10;99.90;;;;;;5076683;28;19912;-79
2022/08/16 04:51:32;;;;;;;;;;;19.10;99.90;;;;;;5078527;28;19912;-81
2022/08/16 04:53:58;;;;;;;;;;;19.20;99.90;;;;;;5096996;28;20399;-80
2022/08/16 04:56:24;;;;;;;;;;;19.30;99.90;;;;;;5097253;28;19991;-80
2022/08/16 04:58:49;;;;;;;;;;;19.30;99.90;;;;;;5079366;28;19944;-79
2022/08/16 05:01:16;;;;;;;;;;;19.20;99.90;;;;;;5076771;28;19912;-79
2022/08/16 05:03:42;;;;;;;;;;;19.10;99.90;;;;;;5076859;28;19908;-79
2022/08/16 05:06:08;;;;;;;;;;;19.10;99.90;;;;;;5083723;28;19912;-79
2022/08/16 05:08:34;;;;;;;;;;;19.20;99.90;;;;;;5094692;28;19908;-79
2022/08/16 05:11:02;;;;;;;;;;;19.10;99.90;;;;;;5080771;28;20037;-79
2022/08/16 05:13:28;;;;;;;;;;;19.20;99.90;;;;;;5084759;28;20291;-79
2022/08/16 05:15:54;;;;;;;;;;;19.20;99.90;;;;;;5077917;28;19930;-79
2022/08/16 05:18:20;;;;;;;;;;;19.20;99.90;;;;;;5074785;28;19999;-79
2022/08/16 05:20:45;;;;;;;;;;;19.10;99.90;;;;;;5075913;28;20288;-79
2022/08/16 05:23:11;;;;;;;;;;;19.20;99.90;;;;;;5075614;28;20000;-79
2022/08/16 05:25:37;;;;;;;;;;;19.20;99.90;;;;;;5076305;28;20284;-78
2022/08/16 05:28:03;;;;;;;;;;;19.10;99.90;;;;;;5075936;28;19909;-79
2022/08/16 05:30:28;;;;;;;;;;;19.10;99.90;;;;;;5075828;28;19951;-78
2022/08/16 05:32:54;;;;;;;;;;;19.10;99.90;;;;;;5074352;28;19944;-79
2022/08/16 05:35:20;;;;;;;;;;;19.20;99.90;;;;;;5074238;28;19909;-78
2022/08/16 05:37:45;;;;;;;;;;;19.10;99.90;;;;;;5074443;28;20008;-79
2022/08/16 05:40:11;;;;;;;;;;;19.20;99.90;;;;;;5074150;28;19999;-79
2022/08/16 05:42:37;;;;;;;;;;;19.20;99.90;;;;;;5075370;28;19974;-79
2022/08/16 05:45:04;;;;;;;;;;;19.20;99.90;;;;;;5075191;28;20352;-79
2022/08/16 05:47:29;;;;;;;;;;;19.10;99.90;;;;;;5074925;28;20007;-79
2022/08/16 05:49:55;;;;;;;;;;;19.10;99.90;;;;;;5072331;28;20399;-80
2022/08/16 05:52:20;;;;;;;;;;;19.10;99.90;;;;;;5074706;28;19948;-79
2022/08/16 05:54:46;;;;;;;;;;;19.20;99.90;;;;;;5057074;28;19970;-79
2022/08/16 05:57:12;;;;;;;;;;;19.20;99.90;;;;;;5075560;28;19965;-79
2022/08/16 05:59:37;;;;;;;;;;;19.30;99.90;;;;;;5074810;28;19909;-79
2022/08/16 06:02:03;;;;;;;;;;;19.20;99.90;;;;;;5079175;28;20328;-79
2022/08/16 06:04:29;;;;;;;;;;;19.30;99.90;;;;;;5089868;28;19908;-78
2022/08/16 06:06:55;;;;;;;;;;;19.40;99.90;;;;;;5082341;28;20021;-79
2022/08/16 06:09:21;;;;;;;;;;;19.30;99.90;;;;;;5074176;28;19920;-79
2022/08/16 06:11:46;;;;;;;;;;;19.30;99.90;;;;;;5073796;28;19916;-79
2022/08/16 06:14:12;;;;;;;;;;;19.40;99.90;;;;;;5074313;28;20422;-79
2022/08/16 06:16:38;;;;;;;;;;;19.50;99.90;;;;;;5075001;28;19912;-78
2022/08/16 06:19:03;;;;;;;;;;;19.50;99.90;;;;;;5074508;28;19980;-79
2022/08/16 06:21:29;;;;;;;;;;;19.50;99.90;;;;;;5073303;28;20347;-78
2022/08/16 06:23:55;;;;;;;;;;;19.60;99.90;;;;;;5073177;28;19908;-79
2022/08/16 06:26:21;;;;;;;;;;;19.60;99.90;;;;;;5073454;28;19951;-78
2022/08/16 06:28:47;;;;;;;;;;;19.70;99.90;;;;;;5072563;28;19977;-80
2022/08/16 06:31:13;;;;;;;;;;;19.80;99.90;;;;;;5073025;28;20318;-79
2022/08/16 06:33:40;;;;;;;;;;;20.00;99.90;;;;;;5073403;28;20284;-78
2022/08/16 06:36:08;;;;;;;;;;;19.90;99.90;;;;;;5074720;28;19908;-79
2022/08/16 06:38:34;;;;;;;;;;;19.90;99.90;;;;;;5056639;28;19909;-79
2022/08/16 06:41:02;;;;;;;;;;;19.90;99.90;;;;;;5074637;28;19999;-78
2022/08/16 06:43:28;;;;;;;;;;;19.80;99.90;;;;;;5074382;28;19928;-80
2022/08/16 06:45:54;;;;;;;;;;;19.70;99.90;;;;;;5074196;28;20003;-78
2022/08/16 06:48:20;;;;;;;;;;;19.60;99.90;;;;;;5074434;28;19913;-79
2022/08/16 06:50:49;;;;;;;;;;;19.30;99.90;;;;;;5074242;28;19971;-78
2022/08/16 06:53:14;;;;;;;;;;;19.00;99.90;;;;;;5074223;28;19919;-76
2022/08/16 06:55:42;;;;;;;;;;;18.80;99.90;;;;;;5074641;28;19909;-76
2022/08/16 06:58:07;;;;;;;;;;;18.80;99.90;;;;;;5074106;28;19915;-76
2022/08/16 07:00:33;;;;;;;;;;;18.80;99.90;;;;;;5073714;28;19927;-76
2022/08/16 07:02:59;;;;;;;;;;;18.70;99.90;;;;;;5073944;28;19920;-78
2022/08/16 07:05:25;;;;;;;;;;;18.70;99.90;;;;;;5073918;28;19916;-75
2022/08/16 07:07:51;;;;;;;;;;;18.60;99.90;;;;;;5073911;28;19909;-75
2022/08/16 07:10:17;;;;;;;;;;;18.60;99.90;;;;;;5073829;28;19999;-76
2022/08/16 07:12:43;;;;;;;;;;;18.60;99.90;;;;;;5073986;28;20326;-75
2022/08/16 07:15:09;;;;;;;;;;;18.60;99.90;;;;;;5073869;28;19912;-76
2022/08/16 07:17:35;;;;;;;;;;;18.60;99.90;;;;;;5073846;28;19909;-76
2022/08/16 07:20:01;;;;;;;;;;;18.70;99.90;;;;;;5073770;28;19908;-75
2022/08/16 07:22:27;;;;;;;;;;;18.70;99.90;;;;;;5073796;28;19915;-75
2022/08/16 07:24:52;;;;;;;;;;;18.60;99.90;;;;;;5074075;28;19908;-75
2022/08/16 07:27:18;;;;;;;;;;;18.50;99.90;;;;;;5073990;28;19918;-76
2022/08/16 07:29:43;;;;;;;;;;;18.60;99.90;;;;;;5073680;28;19916;-75
2022/08/16 07:32:09;;;;;;;;;;;18.60;99.90;;;;;;5073539;28;19974;-76
2022/08/16 07:34:35;;;;;;;;;;;18.60;99.90;;;;;;5073758;28;20004;-75
2022/08/16 07:37:05;;;;;;;;;;;18.60;99.90;;;;;;5073516;28;19951;-75
2022/08/16 07:39:31;;;;;;;;;;;18.70;99.90;;;;;;5055330;28;19908;-75
2022/08/16 07:41:57;;;;;;;;;;;18.80;99.90;;;;;;5073868;28;19908;-76
2022/08/16 07:44:22;;;;;;;;;;;18.80;99.90;;;;;;5073280;28;19908;-75
2022/08/16 07:46:48;;;;;;;;;;;18.80;99.90;;;;;;5073100;28;19971;-75
2022/08/16 07:49:13;;;;;;;;;;;18.90;99.90;;;;;;5073325;28;20276;-75
2022/08/16 07:51:40;;;;;;;;;;;19.00;99.90;;;;;;5073639;28;19912;-74
2022/08/16 07:54:06;;;;;;;;;;;18.90;99.90;;;;;;5072856;28;19909;-74
2022/08/16 07:56:32;;;;;;;;;;;18.90;99.90;;;;;;5055719;28;20269;-74
2022/08/16 07:58:58;;;;;;;;;;;18.80;99.90;;;;;;5073485;28;20058;-74
2022/08/16 08:01:24;;;;;;;;;;;18.80;99.90;;;;;;5073429;28;20266;-74
2022/08/16 08:03:51;;;;;;;;;;;18.80;99.90;;;;;;5073356;28;19962;-74
2022/08/16 08:06:18;;;;;;;;;;;18.70;99.90;;;;;;5073408;28;19915;-75
2022/08/16 08:08:43;;;;;;;;;;;18.80;99.90;;;;;;5073635;28;20399;-75
2022/08/16 08:11:09;;;;;;;;;;;18.80;99.90;;;;;;5073528;28;19948;-74
2022/08/16 08:13:35;;;;;;;;;;;18.80;99.90;;;;;;5073299;28;20387;-75
2022/08/16 08:16:00;;;;;;;;;;;18.90;99.90;;;;;;5073241;28;19919;-75
2022/08/16 08:18:26;;;;;;;;;;;18.90;99.90;;;;;;5073218;28;20477;-74
2022/08/16 08:20:52;;;;;;;;;;;19.10;99.90;;;;;;5073186;28;20423;-75
2022/08/16 08:23:19;;;;;;;;;;;19.20;99.90;;;;;;5073149;28;19999;-74
2022/08/16 08:25:45;;;;;;;;;;;19.20;99.90;;;;;;5073168;28;19908;-75
2022/08/16 08:28:11;;;;;;;;;;;19.30;99.90;;;;;;5073086;28;19915;-75
2022/08/16 08:30:37;;;;;;;;;;;19.20;99.90;;;;;;5073224;28;20345;-75
2022/08/16 08:33:02;;;;;;;;;;;19.30;99.90;;;;;;5073003;28;20007;-75
2022/08/16 08:35:28;;;;;;;;;;;19.50;99.90;;;;;;5072995;28;19999;-75
2022/08/16 08:37:54;;;;;;;;;;;19.70;99.90;;;;;;5073522;28;19916;-75
2022/08/16 08:40:20;;;;;;;;;;;20.00;99.90;;;;;;5073069;28;19908;-76
2022/08/16 08:42:46;;;;;;;;;;;20.10;99.90;;;;;;5073653;28;20299;-76
2022/08/16 08:45:12;;;;;;;;;;;20.20;99.90;;;;;;5055036;28;19923;-75
2022/08/16 08:47:41;;;;;;;;;;;20.70;99.90;;;;;;5072662;28;19970;-76
2022/08/16 08:50:14;;;;;;;;;;;21.40;99.90;;;;;;5071755;28;21417;-76
2022/08/16 08:52:40;;;;;;;;;;;22.40;99.90;;;;;;5074589;28;19920;-76
2022/08/16 08:55:07;;;;;;;;;;;23.20;99.90;;;;;;5076494;28;19912;-76
2022/08/16 08:57:33;;;;;;;;;;;26.30;99.90;;;;;;5076984;28;19909;-76
2022/08/16 08:59:58;;;;;;;;;;;27.90;99.90;;;;;;5076402;28;19936;-76
2022/08/16 09:02:24;;;;;;;;;;;28.60;99.90;;;;;;5076416;28;20047;-76
2022/08/16 09:04:50;;;;;;;;;;;30.10;99.90;;;;;;5076384;28;19915;-76
2022/08/16 09:07:16;;;;;;;;;;;29.80;98.80;;;;;;5076578;28;19909;-76
2022/08/16 09:09:42;;;;;;;;;;;30.30;99.90;;;;;;5076216;28;19931;-76
2022/08/16 09:12:08;;;;;;;;;;;30.20;96.10;;;;;;5076061;28;20356;-77
2022/08/16 09:14:34;;;;;;;;;;;29.90;95.60;;;;;;5076150;28;19908;-77
2022/08/16 09:17:00;;;;;;;;;;;30.00;98.50;;;;;;5076162;28;19908;-77
2022/08/16 09:19:26;;;;;;;;;;;30.60;94.80;;;;;;5076171;28;19915;-75
2022/08/16 09:21:52;;;;;;;;;;;32.00;97.70;;;;;;5076012;28;19944;-75
2022/08/16 09:24:17;;;;;;;;;;;32.70;93.40;;;;;;5075997;28;19950;-76
2022/08/16 09:26:43;;;;;;;;;;;32.10;88.90;;;;;;5075879;28;19908;-76
2022/08/16 09:29:08;;;;;;;;;;;33.80;88.70;;;;;;5075817;28;20007;-77
2022/08/16 09:31:34;;;;;;;;;;;33.60;85.90;;;;;;5076047;28;20055;-77
2022/08/16 09:34:06;;;;;;;;;;;34.40;84.60;;;;;;5075730;28;20368;-77
2022/08/16 09:36:32;;;;;;;;;;;34.10;86.60;;;;;;5075709;28;19915;-77
2022/08/16 09:38:59;;;;;;;;;;;34.20;80.00;;;;;;5075843;28;19909;-77
2022/08/16 09:41:25;;;;;;;;;;;35.00;84.80;;;;;;5075674;28;19916;-77
2022/08/16 09:43:51;;;;;;;;;;;34.70;81.20;;;;;;5075658;28;19908;-77
2022/08/16 09:46:17;;;;;;;;;;;32.40;86.50;;;;;;5075569;28;19967;-77
2022/08/16 09:48:42;;;;;;;;;;;34.10;80.90;;;;;;5075618;28;19912;-77
2022/08/16 09:51:08;;;;;;;;;;;34.10;78.50;;;;;;5075470;28;20440;-77
2022/08/16 09:53:35;;;;;;;;;;;34.70;77.00;;;;;;5075272;28;19920;-78
2022/08/16 09:56:03;;;;;;;;;;;35.40;72.20;;;;;;5075908;28;19959;-78
2022/08/16 09:58:29;;;;;;;;;;;34.60;72.20;;;;;;5075290;28;19913;-80
2022/08/16 10:00:54;;;;;;;;;;;33.60;73.30;;;;;;5075362;28;19908;-80
2022/08/16 10:03:20;;;;;;;;;;;34.50;70.20;;;;;;5075271;28;19995;-79
2022/08/16 10:05:46;;;;;;;;;;;35.30;66.80;;;;;;5075163;28;19916;-79
2022/08/16 10:08:12;;;;;;;;;;;37.00;66.50;;;;;;5075113;28;19908;-79
2022/08/16 10:10:40;;;;;;;;;;;39.50;60.50;;;;;;5075400;28;19908;-79
2022/08/16 10:13:13;;;;;;;;;;;37.60;61.10;;;;;;5075001;28;20383;-79
2022/08/16 10:15:45;;;;;;;;;;;35.30;62.70;;;;;;5075114;28;19923;-79
2022/08/16 10:18:12;;;;;;;;;;;38.00;62.00;;;;;;5074961;28;19908;-80
2022/08/16 10:20:41;;;;;;;;;;;40.90;55.90;;;;;;5075150;28;19908;-79
2022/08/16 10:23:08;;;;;;;;;;;41.30;54.20;;;;;;5075313;28;19958;-80
2022/08/16 10:25:38;;;;;;;;;;;40.80;52.40;;;;;;5056795;28;20002;-79
2022/08/16 10:28:04;;;;;;;;;;;40.40;51.40;;;;;;5074875;28;19908;-80
2022/08/16 10:30:30;;;;;;;;;;;40.60;50.40;;;;;;5074793;28;20402;-79
2022/08/16 10:32:55;;;;;;;;;;;38.50;50.80;;;;;;5074730;28;19959;-81
2022/08/16 10:35:22;;;;;;;;;;;36.30;53.60;;;;;;5074657;28;20372;-80
2022/08/16 10:37:47;;;;;;;;;;;34.10;56.70;;;;;;5075004;28;19909;-80
2022/08/16 10:40:13;;;;;;;;;;;33.50;57.20;;;;;;5074622;28;19915;-79
2022/08/16 10:42:39;;;;;;;;;;;37.20;56.20;;;;;;5074368;28;19913;-80
2022/08/16 10:45:05;;;;;;;;;;;41.20;51.00;;;;;;5074322;28;19908;-80
2022/08/16 10:47:30;;;;;;;;;;;42.60;47.40;;;;;;5073936;28;19927;-80
2022/08/16 10:49:58;;;;;;;;;;;42.10;46.80;;;;;;5057085;28;19944;-80
2022/08/16 10:52:24;;;;;;;;;;;38.90;48.70;;;;;;5074335;28;19917;-79
2022/08/16 10:54:50;;;;;;;;;;;35.20;52.30;;;;;;5069191;28;19916;-80
2022/08/16 10:57:15;;;;;;;;;;;37.40;52.80;;;;;;5067184;28;19920;-80
2022/08/16 10:59:42;;;;;;;;;;;40.00;49.60;;;;;;5070084;28;19915;-80
2022/08/16 11:02:09;;;;;;;;;;;37.90;49.20;;;;;;5073683;28;20279;-80
2022/08/16 11:04:35;;;;;;;;;;;38.70;52.40;;;;;;5073567;28;20003;-80
2022/08/16 11:07:00;;;;;;;;;;;41.60;47.10;;;;;;5073581;28;19944;-81
2022/08/16 11:09:26;;;;;;;;;;;42.00;48.80;;;;;;5073702;28;19913;-80
2022/08/16 11:11:52;;;;;;;;;;;40.30;47.60;;;;;;5074884;28;20357;-80
2022/08/16 11:14:18;;;;;;;;;;;38.80;50.40;;;;;;5073519;28;19944;-81
2022/08/16 11:16:44;;;;;;;;;;;41.80;48.50;;;;;;5073114;28;20330;-81
2022/08/16 11:19:10;;;;;;;;;;;40.40;45.80;;;;;;5055423;28;19909;-81
2022/08/16 11:21:36;;;;;;;;;;;41.10;46.60;;;;;;5073348;28;19957;-80
2022/08/16 11:24:02;;;;;;;;;;;38.40;48.30;;;;;;5073370;28;20282;-80
2022/08/16 11:26:28;;;;;;;;;;;36.80;49.30;;;;;;5073316;28;19909;-80
2022/08/16 11:28:56;;;;;;;;;;;36.00;49.90;;;;;;5073263;28;19909;-80
2022/08/16 11:31:22;;;;;;;;;;;34.20;52.20;;;;;;5073768;28;19954;-79
2022/08/16 11:33:48;;;;;;;;;;;32.40;55.40;;;;;;5073843;28;19913;-79
2022/08/16 11:36:14;;;;;;;;;;;30.70;58.10;;;;;;5073596;28;19916;-78
2022/08/16 11:38:40;;;;;;;;;;;29.20;61.10;;;;;;5073899;28;20002;-79
2022/08/16 11:41:06;;;;;;;;;;;28.70;62.90;;;;;;5073873;28;19909;-81
2022/08/16 11:43:33;;;;;;;;;;;28.10;63.50;;;;;;5073842;28;19961;-81
2022/08/16 11:46:00;;;;;;;;;;;28.10;65.20;;;;;;5073290;28;19923;-81
2022/08/16 11:48:26;;;;;;;;;;;27.70;65.10;;;;;;5073572;28;19966;-80
2022/08/16 11:50:53;;;;;;;;;;;27.70;66.70;;;;;;5073687;28;20384;-79
2022/08/16 11:53:20;;;;;;;;;;;27.60;67.10;;;;;;5073398;28;20377;-79
2022/08/16 11:55:46;;;;;;;;;;;27.30;68.40;;;;;;5073622;28;19916;-79
2022/08/16 11:58:12;;;;;;;;;;;27.50;68.20;;;;;;5074208;28;20383;-80
2022/08/16 12:00:39;;;;;;;;;;;28.60;67.40;;;;;;5074270;28;19908;-82
2022/08/16 12:03:04;;;;;;;;;;;30.80;65.10;;;;;;5074184;28;19915;-82
2022/08/16 12:05:30;;;;;;;;;;;33.00;61.20;;;;;;5073662;28;19908;-83
2022/08/16 12:07:56;;;;;;;;;;;33.00;60.00;;;;;;5073342;28;19916;-83
2022/08/16 12:10:24;;;;;;;;;;;33.10;59.40;;;;;;5073525;28;19912;-83
2022/08/16 12:12:50;;;;;;;;;;;32.20;58.60;;;;;;5074089;28;19974;-82
2022/08/16 12:15:16;;;;;;;;;;;29.80;62.00;;;;;;5056461;28;19909;-82
2022/08/16 12:17:42;;;;;;;;;;;28.40;65.10;;;;;;5055600;28;20369;-81
2022/08/16 12:20:16;;;;;;;;;;;27.20;67.30;;;;;;5073994;28;19916;-81
2022/08/16 12:22:41;;;;;;;;;;;26.60;69.60;;;;;;5074328;28;19954;-81
2022/08/16 12:25:09;;;;;;;;;;;26.40;72.00;;;;;;5074083;28;19909;-81
2022/08/16 12:27:35;;;;;;;;;;;26.20;73.40;;;;;;5075525;28;19908;-81
2022/08/16 12:30:04;;;;;;;;;;;25.90;74.50;;;;;;5078452;28;19912;-81
2022/08/16 12:32:30;;;;;;;;;;;26.30;75.30;;;;;;5077979;28;19958;-82
2022/08/16 12:34:55;;;;;;;;;;;26.60;75.70;;;;;;5078410;28;19995;-81
2022/08/16 12:37:22;;;;;;;;;;;27.30;75.70;;;;;;5077577;28;19909;-82
2022/08/16 12:39:48;;;;;;;;;;;28.60;72.60;;;;;;5077915;28;19909;-83
2022/08/16 12:42:13;;;;;;;;;;;32.80;63.70;;;;;;5059409;28;19915;-83
2022/08/16 12:44:42;;;;;;;;;;;35.40;60.30;;;;;;5077148;28;19912;-80
2022/08/16 12:49:52;;;;;;;;;;;39.70;51.70;;;;;;5076440;28;19958;-81
2022/08/16 12:52:19;;;;;;;;;;;41.90;50.10;;;;;;5078113;28;19912;-82
2022/08/16 12:54:44;;;;;;;;;;;44.70;45.60;;;;;;5076946;28;19915;-81
2022/08/16 12:57:10;;;;;;;;;;;42.90;45.50;;;;;;5077085;28;20280;-81
2022/08/16 12:59:35;;;;;;;;;;;41.10;45.00;;;;;;5076852;28;19909;-81
2022/08/16 13:02:01;;;;;;;;;;;40.10;47.90;;;;;;5076525;28;19995;-81
2022/08/16 13:04:28;;;;;;;;;;;43.10;47.10;;;;;;5076507;28;19909;-81
2022/08/16 13:06:54;;;;;;;;;;;41.20;45.90;;;;;;5076382;28;19999;-81
2022/08/16 13:09:23;;;;;;;;;;;43.50;45.70;;;;;;5076383;28;20407;-82
2022/08/16 13:12:02;;;;;;;;;;;44.70;43.10;;;;;;5058172;28;19919;-81
2022/08/16 13:14:32;;;;;;;;;;;39.50;43.10;;;;;;5076584;28;20253;-81
2022/08/16 13:16:58;;;;;;;;;;;38.80;46.90;;;;;;5076402;28;19916;-80
2022/08/16 13:19:23;;;;;;;;;;;35.20;48.00;;;;;;5077003;28;19916;-80
2022/08/16 13:21:49;;;;;;;;;;;39.40;45.30;;;;;;5077448;28;19909;-81
2022/08/16 13:24:15;;;;;;;;;;;40.90;44.60;;;;;;5076826;28;20276;-80
2022/08/16 13:26:40;;;;;;;;;;;39.00;45.00;;;;;;5076352;28;20019;-80
2022/08/16 13:29:06;;;;;;;;;;;34.60;48.30;;;;;;5075901;28;19908;-80
2022/08/16 13:31:31;;;;;;;;;;;33.80;50.60;;;;;;5075904;28;19916;-79
2022/08/16 13:33:57;;;;;;;;;;;32.40;52.10;;;;;;5075780;28;19970;-80
2022/08/16 13:36:23;;;;;;;;;;;37.00;50.20;;;;;;5075851;28;19955;-80
2022/08/16 13:38:48;;;;;;;;;;;36.70;47.50;;;;;;5075326;28;20449;-80
2022/08/16 13:41:14;;;;;;;;;;;36.60;50.20;;;;;;5075659;28;20323;-80
2022/08/16 13:43:40;;;;;;;;;;;35.90;49.30;;;;;;5076006;28;19947;-81
2022/08/16 13:46:06;;;;;;;;;;;39.20;49.10;;;;;;5076392;28;19916;-81
2022/08/16 13:48:33;;;;;;;;;;;41.10;46.60;;;;;;5078696;28;19991;-82
2022/08/16 13:50:58;;;;;;;;;;;41.70;47.30;;;;;;5075914;28;19916;-80
2022/08/16 13:53:25;;;;;;;;;;;37.40;45.90;;;;;;5075433;28;19913;-81
2022/08/16 13:55:51;;;;;;;;;;;38.10;48.10;;;;;;5075664;28;19940;-80
2022/08/16 13:58:17;;;;;;;;;;;39.10;48.00;;;;;;5077334;28;19951;-81
2022/08/16 14:00:44;;;;;;;;;;;39.20;47.10;;;;;;5078396;28;19970;-81
2022/08/16 14:03:10;;;;;;;;;;;39.70;47.50;;;;;;5077414;28;20372;-81
2022/08/16 14:05:35;;;;;;;;;;;39.00;47.00;;;;;;5077410;28;19971;-81
2022/08/16 14:08:02;;;;;;;;;;;36.20;48.40;;;;;;5078071;28;19916;-80
2022/08/16 14:10:28;;;;;;;;;;;33.80;50.50;;;;;;5077914;28;19931;-80
2022/08/16 14:12:53;;;;;;;;;;;33.80;53.50;;;;;;5077139;28;20368;-80